Terminal Aerodrome Forecast
Issued by NWS Blacksburg, VA

Current Version | Previous Version | Graphics & Text | Print | Product List | Glossary On
Versions: 1 2 3 4 5 6 7 8 9 10 11 12 13 14 15 16
000
FTUS41 KRNK 181859 AAB
TAFBLF
TAF AMD
KBLF 181859Z 1819/1918 29008KT P6SM VCTS SCT040 BKN050CB
      TEMPO 1819/1821 2SM SHRA OVC025
     FM182100 29008KT P6SM VCSH SCT020 BKN040
     FM190000 29007KT P6SM SCT050
     FM190800 25005KT 3SM BR BKN005
     FM191400 VRB03KT P6SM FEW250=

USA.gov is the U.S. government's official web portal to all federal, state and local government web resources and services.